sensor_id;sensor_type;location;lat;lon;timestamp;P1;durP1;ratioP1;P2;durP2;ratioP2
55931;SDS011;41837;55.700;37.984;2022-09-09T00:02:01;5.63;;;2.17;;
55931;SDS011;41837;55.700;37.984;2022-09-09T00:04:31;4.38;;;1.83;;
55931;SDS011;41837;55.700;37.984;2022-09-09T00:06:59;7.13;;;1.75;;
55931;SDS011;41837;55.700;37.984;2022-09-09T00:09:28;3.80;;;1.70;;
55931;SDS011;41837;55.700;37.984;2022-09-09T00:11:56;6.20;;;1.70;;
55931;SDS011;41837;55.700;37.984;2022-09-09T00:16:57;5.15;;;1.75;;
55931;SDS011;41837;55.700;37.984;2022-09-09T00:19:31;2.28;;;1.45;;
55931;SDS011;41837;55.700;37.984;2022-09-09T00:22:15;5.90;;;2.17;;
55931;SDS011;41837;55.700;37.984;2022-09-09T00:24:43;4.10;;;1.90;;
55931;SDS011;41837;55.700;37.984;2022-09-09T00:29:46;4.95;;;2.00;;
55931;SDS011;41837;55.700;37.984;2022-09-09T00:32:14;3.83;;;2.00;;
55931;SDS011;41837;55.700;37.984;2022-09-09T00:34:49;3.28;;;1.60;;
55931;SDS011;41837;55.700;37.984;2022-09-09T00:37:15;4.25;;;1.70;;
55931;SDS011;41837;55.700;37.984;2022-09-09T00:39:42;4.20;;;2.15;;
55931;SDS011;41837;55.700;37.984;2022-09-09T00:44:38;4.50;;;1.67;;
55931;SDS011;41837;55.700;37.984;2022-09-09T00:52:39;4.35;;;1.70;;
55931;SDS011;41837;55.700;37.984;2022-09-09T00:57:37;3.90;;;1.58;;
55931;SDS011;41837;55.700;37.984;2022-09-09T01:02:52;4.55;;;1.60;;
55931;SDS011;41837;55.700;37.984;2022-09-09T01:08:18;5.07;;;1.45;;
55931;SDS011;41837;55.700;37.984;2022-09-09T01:10:49;2.45;;;1.77;;
55931;SDS011;41837;55.700;37.984;2022-09-09T01:13:19;5.95;;;1.40;;
55931;SDS011;41837;55.700;37.984;2022-09-09T01:15:47;3.95;;;1.63;;
55931;SDS011;41837;55.700;37.984;2022-09-09T01:18:15;2.50;;;1.70;;
55931;SDS011;41837;55.700;37.984;2022-09-09T01:23:51;4.93;;;1.38;;
55931;SDS011;41837;55.700;37.984;2022-09-09T01:28:51;4.78;;;1.67;;
55931;SDS011;41837;55.700;37.984;2022-09-09T01:31:39;5.68;;;1.38;;
55931;SDS011;41837;55.700;37.984;2022-09-09T01:34:14;4.30;;;1.40;;
55931;SDS011;41837;55.700;37.984;2022-09-09T01:39:17;4.80;;;1.58;;
55931;SDS011;41837;55.700;37.984;2022-09-09T01:41:45;6.68;;;1.75;;
55931;SDS011;41837;55.700;37.984;2022-09-09T01:44:12;3.33;;;1.35;;
55931;SDS011;41837;55.700;37.984;2022-09-09T01:46:42;4.32;;;1.58;;
55931;SDS011;41837;55.700;37.984;2022-09-09T01:49:14;2.53;;;1.50;;
55931;SDS011;41837;55.700;37.984;2022-09-09T01:51:41;4.78;;;1.67;;
55931;SDS011;41837;55.700;37.984;2022-09-09T01:54:11;3.58;;;1.45;;
55931;SDS011;41837;55.700;37.984;2022-09-09T01:56:44;4.72;;;1.40;;
55931;SDS011;41837;55.700;37.984;2022-09-09T01:59:18;6.63;;;1.98;;
55931;SDS011;41837;55.700;37.984;2022-09-09T02:06:46;3.38;;;1.60;;
55931;SDS011;41837;55.700;37.984;2022-09-09T02:09:23;2.83;;;1.25;;
55931;SDS011;41837;55.700;37.984;2022-09-09T02:11:52;3.38;;;1.30;;
55931;SDS011;41837;55.700;37.984;2022-09-09T02:14:31;2.90;;;1.20;;
55931;SDS011;41837;55.700;37.984;2022-09-09T02:17:07;4.70;;;1.45;;
55931;SDS011;41837;55.700;37.984;2022-09-09T02:20:07;3.03;;;1.25;;
55931;SDS011;41837;55.700;37.984;2022-09-09T02:22:48;3.95;;;1.42;;
55931;SDS011;41837;55.700;37.984;2022-09-09T02:25:17;5.68;;;1.60;;
55931;SDS011;41837;55.700;37.984;2022-09-09T02:27:45;4.38;;;1.88;;
55931;SDS011;41837;55.700;37.984;2022-09-09T02:30:14;4.63;;;1.75;;
55931;SDS011;41837;55.700;37.984;2022-09-09T02:32:46;5.88;;;1.90;;
55931;SDS011;41837;55.700;37.984;2022-09-09T02:35:17;23.73;;;2.55;;
55931;SDS011;41837;55.700;37.984;2022-09-09T02:37:44;8.38;;;1.67;;
55931;SDS011;41837;55.700;37.984;2022-09-09T02:40:15;3.75;;;1.98;;
55931;SDS011;41837;55.700;37.984;2022-09-09T02:42:45;2.95;;;1.65;;
55931;SDS011;41837;55.700;37.984;2022-09-09T02:45:13;3.70;;;1.98;;
55931;SDS011;41837;55.700;37.984;2022-09-09T02:47:45;7.40;;;1.90;;
55931;SDS011;41837;55.700;37.984;2022-09-09T02:58:26;3.75;;;1.95;;
55931;SDS011;41837;55.700;37.984;2022-09-09T03:00:57;2.67;;;1.67;;
55931;SDS011;41837;55.700;37.984;2022-09-09T03:03:24;3.17;;;1.90;;
55931;SDS011;41837;55.700;37.984;2022-09-09T03:05:51;4.63;;;1.90;;
55931;SDS011;41837;55.700;37.984;2022-09-09T03:08:17;5.40;;;1.95;;
55931;SDS011;41837;55.700;37.984;2022-09-09T03:10:44;11.65;;;1.98;;
55931;SDS011;41837;55.700;37.984;2022-09-09T03:13:13;7.90;;;2.28;;
55931;SDS011;41837;55.700;37.984;2022-09-09T03:15:41;6.90;;;2.08;;
55931;SDS011;41837;55.700;37.984;2022-09-09T03:18:11;5.35;;;2.35;;
55931;SDS011;41837;55.700;37.984;2022-09-09T03:20:37;4.88;;;1.98;;
55931;SDS011;41837;55.700;37.984;2022-09-09T03:23:03;8.50;;;2.80;;
55931;SDS011;41837;55.700;37.984;2022-09-09T03:25:29;4.07;;;2.20;;
55931;SDS011;41837;55.700;37.984;2022-09-09T03:27:56;6.00;;;2.20;;
55931;SDS011;41837;55.700;37.984;2022-09-09T03:30:23;11.20;;;2.67;;
55931;SDS011;41837;55.700;37.984;2022-09-09T03:32:50;6.95;;;2.67;;
55931;SDS011;41837;55.700;37.984;2022-09-09T03:35:16;6.47;;;1.92;;
55931;SDS011;41837;55.700;37.984;2022-09-09T03:37:42;5.80;;;2.40;;
55931;SDS011;41837;55.700;37.984;2022-09-09T03:40:10;3.85;;;1.70;;
55931;SDS011;41837;55.700;37.984;2022-09-09T03:42:36;5.40;;;2.13;;
55931;SDS011;41837;55.700;37.984;2022-09-09T03:45:09;4.75;;;1.88;;
55931;SDS011;41837;55.700;37.984;2022-09-09T03:47:38;6.78;;;1.75;;
55931;SDS011;41837;55.700;37.984;2022-09-09T03:50:06;3.30;;;1.70;;
55931;SDS011;41837;55.700;37.984;2022-09-09T03:52:37;6.47;;;1.70;;
55931;SDS011;41837;55.700;37.984;2022-09-09T03:55:05;4.20;;;1.50;;
55931;SDS011;41837;55.700;37.984;2022-09-09T03:57:31;5.70;;;1.85;;
55931;SDS011;41837;55.700;37.984;2022-09-09T04:00:04;6.97;;;1.67;;
55931;SDS011;41837;55.700;37.984;2022-09-09T04:02:42;6.07;;;1.45;;
55931;SDS011;41837;55.700;37.984;2022-09-09T04:05:12;6.25;;;1.80;;
55931;SDS011;41837;55.700;37.984;2022-09-09T04:07:41;8.38;;;1.88;;
55931;SDS011;41837;55.700;37.984;2022-09-09T04:10:08;4.47;;;2.15;;
55931;SDS011;41837;55.700;37.984;2022-09-09T04:12:37;4.55;;;1.90;;
55931;SDS011;41837;55.700;37.984;2022-09-09T04:15:03;2.65;;;1.50;;
55931;SDS011;41837;55.700;37.984;2022-09-09T04:17:30;4.50;;;1.67;;
55931;SDS011;41837;55.700;37.984;2022-09-09T04:19:57;2.70;;;1.80;;
55931;SDS011;41837;55.700;37.984;2022-09-09T04:22:23;5.72;;;1.77;;
55931;SDS011;41837;55.700;37.984;2022-09-09T04:24:49;3.38;;;1.90;;
55931;SDS011;41837;55.700;37.984;2022-09-09T04:27:17;3.83;;;1.70;;
55931;SDS011;41837;55.700;37.984;2022-09-09T04:29:44;4.90;;;1.50;;
55931;SDS011;41837;55.700;37.984;2022-09-09T04:32:10;5.78;;;1.63;;
55931;SDS011;41837;55.700;37.984;2022-09-09T04:34:38;7.53;;;1.77;;
55931;SDS011;41837;55.700;37.984;2022-09-09T04:37:03;8.00;;;2.50;;
55931;SDS011;41837;55.700;37.984;2022-09-09T04:39:30;8.00;;;2.30;;
55931;SDS011;41837;55.700;37.984;2022-09-09T04:41:58;11.77;;;2.30;;
55931;SDS011;41837;55.700;37.984;2022-09-09T04:44:25;6.45;;;1.90;;
55931;SDS011;41837;55.700;37.984;2022-09-09T04:46:50;6.55;;;1.58;;
55931;SDS011;41837;55.700;37.984;2022-09-09T04:49:17;3.97;;;1.75;;
55931;SDS011;41837;55.700;37.984;2022-09-09T04:51:43;7.05;;;2.00;;
55931;SDS011;41837;55.700;37.984;2022-09-09T04:54:09;8.80;;;2.13;;
55931;SDS011;41837;55.700;37.984;2022-09-09T04:56:38;4.28;;;2.10;;
55931;SDS011;41837;55.700;37.984;2022-09-09T04:59:04;4.85;;;2.08;;
55931;SDS011;41837;55.700;37.984;2022-09-09T05:01:43;7.10;;;2.20;;
55931;SDS011;41837;55.700;37.984;2022-09-09T05:04:10;8.05;;;2.47;;
55931;SDS011;41837;55.700;37.984;2022-09-09T05:06:36;6.47;;;1.58;;
55931;SDS011;41837;55.700;37.984;2022-09-09T05:09:03;6.47;;;1.83;;
55931;SDS011;41837;55.700;37.984;2022-09-09T05:11:30;6.30;;;1.85;;
55931;SDS011;41837;55.700;37.984;2022-09-09T05:14:16;7.85;;;2.00;;
55931;SDS011;41837;55.700;37.984;2022-09-09T05:16:44;9.15;;;1.85;;
55931;SDS011;41837;55.700;37.984;2022-09-09T05:19:10;7.97;;;1.42;;
55931;SDS011;41837;55.700;37.984;2022-09-09T05:21:44;5.78;;;1.83;;
55931;SDS011;41837;55.700;37.984;2022-09-09T05:24:13;7.50;;;1.95;;
55931;SDS011;41837;55.700;37.984;2022-09-09T05:26:39;3.97;;;1.35;;
55931;SDS011;41837;55.700;37.984;2022-09-09T05:29:06;7.15;;;1.42;;
55931;SDS011;41837;55.700;37.984;2022-09-09T05:31:33;5.20;;;1.65;;
55931;SDS011;41837;55.700;37.984;2022-09-09T05:34:04;3.72;;;1.35;;
55931;SDS011;41837;55.700;37.984;2022-09-09T05:36:30;6.93;;;1.83;;
55931;SDS011;41837;55.700;37.984;2022-09-09T05:38:56;3.33;;;1.58;;
55931;SDS011;41837;55.700;37.984;2022-09-09T05:41:24;7.47;;;2.20;;
55931;SDS011;41837;55.700;37.984;2022-09-09T05:43:53;6.82;;;1.77;;
55931;SDS011;41837;55.700;37.984;2022-09-09T05:46:21;5.28;;;1.73;;
55931;SDS011;41837;55.700;37.984;2022-09-09T05:48:50;5.25;;;1.52;;
55931;SDS011;41837;55.700;37.984;2022-09-09T05:51:18;10.95;;;1.70;;
55931;SDS011;41837;55.700;37.984;2022-09-09T05:53:47;5.72;;;1.73;;
55931;SDS011;41837;55.700;37.984;2022-09-09T05:56:14;4.97;;;1.55;;
55931;SDS011;41837;55.700;37.984;2022-09-09T05:58:42;10.45;;;1.92;;
55931;SDS011;41837;55.700;37.984;2022-09-09T06:01:14;7.20;;;1.30;;
55931;SDS011;41837;55.700;37.984;2022-09-09T06:03:42;7.47;;;1.45;;
55931;SDS011;41837;55.700;37.984;2022-09-09T06:06:10;7.07;;;1.60;;
55931;SDS011;41837;55.700;37.984;2022-09-09T06:08:40;8.05;;;1.75;;
55931;SDS011;41837;55.700;37.984;2022-09-09T06:11:07;6.00;;;2.00;;
55931;SDS011;41837;55.700;37.984;2022-09-09T06:13:35;5.18;;;1.63;;
55931;SDS011;41837;55.700;37.984;2022-09-09T06:16:02;4.28;;;1.73;;
55931;SDS011;41837;55.700;37.984;2022-09-09T06:18:28;4.60;;;1.15;;
55931;SDS011;41837;55.700;37.984;2022-09-09T06:21:02;3.78;;;1.20;;
55931;SDS011;41837;55.700;37.984;2022-09-09T06:23:32;7.43;;;1.40;;
55931;SDS011;41837;55.700;37.984;2022-09-09T06:26:01;4.18;;;0.80;;
55931;SDS011;41837;55.700;37.984;2022-09-09T06:28:28;2.95;;;1.10;;
55931;SDS011;41837;55.700;37.984;2022-09-09T06:30:58;2.65;;;0.88;;
55931;SDS011;41837;55.700;37.984;2022-09-09T06:33:24;2.90;;;0.90;;
55931;SDS011;41837;55.700;37.984;2022-09-09T06:35:51;7.43;;;2.72;;
55931;SDS011;41837;55.700;37.984;2022-09-09T06:38:19;2.40;;;0.80;;
55931;SDS011;41837;55.700;37.984;2022-09-09T06:40:53;1.52;;;0.70;;
55931;SDS011;41837;55.700;37.984;2022-09-09T06:43:22;2.38;;;0.68;;
55931;SDS011;41837;55.700;37.984;2022-09-09T06:46:04;3.92;;;0.70;;
55931;SDS011;41837;55.700;37.984;2022-09-09T06:48:32;1.23;;;0.50;;
55931;SDS011;41837;55.700;37.984;2022-09-09T06:51:00;3.90;;;0.68;;
55931;SDS011;41837;55.700;37.984;2022-09-09T06:53:28;1.42;;;0.90;;
55931;SDS011;41837;55.700;37.984;2022-09-09T06:55:54;1.50;;;0.70;;
55931;SDS011;41837;55.700;37.984;2022-09-09T06:58:20;0.60;;;0.40;;
55931;SDS011;41837;55.700;37.984;2022-09-09T07:00:50;2.58;;;0.70;;
55931;SDS011;41837;55.700;37.984;2022-09-09T07:03:16;1.02;;;0.43;;
55931;SDS011;41837;55.700;37.984;2022-09-09T07:05:53;3.88;;;0.60;;
55931;SDS011;41837;55.700;37.984;2022-09-09T07:08:19;3.17;;;1.40;;
55931;SDS011;41837;55.700;37.984;2022-09-09T07:10:45;0.70;;;0.60;;
55931;SDS011;41837;55.700;37.984;2022-09-09T07:13:13;1.05;;;0.70;;
55931;SDS011;41837;55.700;37.984;2022-09-09T07:15:41;3.75;;;1.30;;
55931;SDS011;41837;55.700;37.984;2022-09-09T07:18:07;3.35;;;1.48;;
55931;SDS011;41837;55.700;37.984;2022-09-09T07:20:34;4.03;;;0.60;;
55931;SDS011;41837;55.700;37.984;2022-09-09T07:23:01;1.40;;;0.50;;
55931;SDS011;41837;55.700;37.984;2022-09-09T07:25:26;6.65;;;1.80;;
55931;SDS011;41837;55.700;37.984;2022-09-09T07:27:55;6.32;;;0.55;;
55931;SDS011;41837;55.700;37.984;2022-09-09T07:30:21;0.95;;;0.40;;
55931;SDS011;41837;55.700;37.984;2022-09-09T07:32:50;1.77;;;0.75;;
55931;SDS011;41837;55.700;37.984;2022-09-09T07:35:16;0.90;;;0.55;;
55931;SDS011;41837;55.700;37.984;2022-09-09T07:37:42;2.35;;;0.40;;
55931;SDS011;41837;55.700;37.984;2022-09-09T07:40:08;0.77;;;0.40;;
55931;SDS011;41837;55.700;37.984;2022-09-09T07:42:34;0.30;;;0.30;;
55931;SDS011;41837;55.700;37.984;2022-09-09T07:44:59;0.60;;;0.38;;
55931;SDS011;41837;55.700;37.984;2022-09-09T07:47:25;5.38;;;0.40;;
55931;SDS011;41837;55.700;37.984;2022-09-09T07:49:51;0.75;;;0.40;;
55931;SDS011;41837;55.700;37.984;2022-09-09T07:52:25;0.80;;;0.50;;
55931;SDS011;41837;55.700;37.984;2022-09-09T07:54:57;1.15;;;0.60;;
55931;SDS011;41837;55.700;37.984;2022-09-09T07:57:24;1.55;;;0.50;;
55931;SDS011;41837;55.700;37.984;2022-09-09T07:59:51;4.65;;;1.00;;
55931;SDS011;41837;55.700;37.984;2022-09-09T08:02:17;5.78;;;0.80;;
55931;SDS011;41837;55.700;37.984;2022-09-09T08:04:44;4.00;;;0.90;;
55931;SDS011;41837;55.700;37.984;2022-09-09T08:07:11;0.90;;;0.50;;
55931;SDS011;41837;55.700;37.984;2022-09-09T08:09:44;1.77;;;0.88;;
55931;SDS011;41837;55.700;37.984;2022-09-09T08:12:17;1.48;;;0.60;;
55931;SDS011;41837;55.700;37.984;2022-09-09T08:14:44;2.72;;;1.45;;
55931;SDS011;41837;55.700;37.984;2022-09-09T08:17:10;2.13;;;0.60;;
55931;SDS011;41837;55.700;37.984;2022-09-09T08:19:36;3.47;;;0.70;;
55931;SDS011;41837;55.700;37.984;2022-09-09T08:22:06;2.33;;;0.70;;
55931;SDS011;41837;55.700;37.984;2022-09-09T08:24:34;2.30;;;0.57;;
55931;SDS011;41837;55.700;37.984;2022-09-09T08:27:00;5.45;;;0.75;;
55931;SDS011;41837;55.700;37.984;2022-09-09T08:29:28;6.30;;;1.20;;
55931;SDS011;41837;55.700;37.984;2022-09-09T08:31:55;2.78;;;0.70;;
55931;SDS011;41837;55.700;37.984;2022-09-09T08:34:23;2.10;;;0.50;;
55931;SDS011;41837;55.700;37.984;2022-09-09T08:36:50;1.95;;;0.60;;
55931;SDS011;41837;55.700;37.984;2022-09-09T08:39:19;0.88;;;0.50;;
55931;SDS011;41837;55.700;37.984;2022-09-09T08:50:02;0.82;;;0.30;;
55931;SDS011;41837;55.700;37.984;2022-09-09T08:55:21;0.90;;;0.40;;
55931;SDS011;41837;55.700;37.984;2022-09-09T08:57:52;2.25;;;0.60;;
55931;SDS011;41837;55.700;37.984;2022-09-09T09:00:19;1.70;;;0.52;;
55931;SDS011;41837;55.700;37.984;2022-09-09T09:03:03;3.10;;;0.60;;
55931;SDS011;41837;55.700;37.984;2022-09-09T09:05:35;3.08;;;0.90;;
55931;SDS011;41837;55.700;37.984;2022-09-09T09:10:49;2.03;;;0.40;;
55931;SDS011;41837;55.700;37.984;2022-09-09T09:13:21;0.68;;;0.40;;
55931;SDS011;41837;55.700;37.984;2022-09-09T09:16:00;2.25;;;0.60;;
55931;SDS011;41837;55.700;37.984;2022-09-09T09:18:28;1.73;;;0.57;;
55931;SDS011;41837;55.700;37.984;2022-09-09T09:21:05;2.25;;;0.60;;
55931;SDS011;41837;55.700;37.984;2022-09-09T09:23:45;7.22;;;0.70;;
55931;SDS011;41837;55.700;37.984;2022-09-09T09:26:13;3.15;;;0.65;;
55931;SDS011;41837;55.700;37.984;2022-09-09T09:28:40;1.67;;;0.60;;
55931;SDS011;41837;55.700;37.984;2022-09-09T09:31:12;3.28;;;0.90;;
55931;SDS011;41837;55.700;37.984;2022-09-09T09:33:49;2.17;;;0.93;;
55931;SDS011;41837;55.700;37.984;2022-09-09T09:36:17;2.33;;;0.90;;
55931;SDS011;41837;55.700;37.984;2022-09-09T09:38:55;1.30;;;0.65;;
55931;SDS011;41837;55.700;37.984;2022-09-09T09:41:55;4.43;;;0.80;;
55931;SDS011;41837;55.700;37.984;2022-09-09T09:44:26;1.55;;;0.70;;
55931;SDS011;41837;55.700;37.984;2022-09-09T09:46:52;1.52;;;1.02;;
55931;SDS011;41837;55.700;37.984;2022-09-09T09:49:19;4.20;;;0.80;;
55931;SDS011;41837;55.700;37.984;2022-09-09T09:51:45;1.00;;;0.57;;
55931;SDS011;41837;55.700;37.984;2022-09-09T09:56:39;1.10;;;0.60;;
55931;SDS011;41837;55.700;37.984;2022-09-09T09:59:19;3.53;;;0.68;;
55931;SDS011;41837;55.700;37.984;2022-09-09T10:01:46;0.75;;;0.57;;
55931;SDS011;41837;55.700;37.984;2022-09-09T10:04:16;4.97;;;1.30;;
55931;SDS011;41837;55.700;37.984;2022-09-09T10:06:44;2.67;;;0.73;;
55931;SDS011;41837;55.700;37.984;2022-09-09T10:15:00;3.73;;;0.80;;
55931;SDS011;41837;55.700;37.984;2022-09-09T10:17:26;1.27;;;0.75;;
55931;SDS011;41837;55.700;37.984;2022-09-09T10:20:20;1.50;;;0.90;;
55931;SDS011;41837;55.700;37.984;2022-09-09T10:22:44;1.98;;;1.00;;
55931;SDS011;41837;55.700;37.984;2022-09-09T10:28:19;2.67;;;1.40;;
55931;SDS011;41837;55.700;37.984;2022-09-09T10:38:41;1.85;;;0.90;;
55931;SDS011;41837;55.700;37.984;2022-09-09T10:41:15;2.88;;;0.80;;
55931;SDS011;41837;55.700;37.984;2022-09-09T10:56:42;2.83;;;0.90;;
55931;SDS011;41837;55.700;37.984;2022-09-09T10:59:16;3.63;;;1.33;;
55931;SDS011;41837;55.700;37.984;2022-09-09T11:06:49;0.70;;;0.63;;
55931;SDS011;41837;55.700;37.984;2022-09-09T11:09:21;1.38;;;0.77;;
55931;SDS011;41837;55.700;37.984;2022-09-09T11:11:55;1.10;;;0.63;;
55931;SDS011;41837;55.700;37.984;2022-09-09T11:14:33;2.55;;;0.77;;
55931;SDS011;41837;55.700;37.984;2022-09-09T11:17:04;2.65;;;0.82;;
55931;SDS011;41837;55.700;37.984;2022-09-09T11:19:36;2.92;;;1.05;;
55931;SDS011;41837;55.700;37.984;2022-09-09T11:24:50;1.90;;;0.50;;
55931;SDS011;41837;55.700;37.984;2022-09-09T11:27:19;2.75;;;0.70;;
55931;SDS011;41837;55.700;37.984;2022-09-09T11:30:04;1.60;;;0.50;;
55931;SDS011;41837;55.700;37.984;2022-09-09T11:40:27;2.92;;;0.77;;
55931;SDS011;41837;55.700;37.984;2022-09-09T11:45:31;2.63;;;0.68;;
55931;SDS011;41837;55.700;37.984;2022-09-09T11:47:59;1.60;;;0.60;;
55931;SDS011;41837;55.700;37.984;2022-09-09T11:52:51;0.70;;;0.60;;
55931;SDS011;41837;55.700;37.984;2022-09-09T11:55:29;3.65;;;0.65;;
55931;SDS011;41837;55.700;37.984;2022-09-09T11:57:58;7.13;;;0.85;;
55931;SDS011;41837;55.700;37.984;2022-09-09T12:00:36;3.80;;;1.00;;
55931;SDS011;41837;55.700;37.984;2022-09-09T12:03:31;0.93;;;0.60;;
55931;SDS011;41837;55.700;37.984;2022-09-09T12:05:53;2.17;;;0.63;;
55931;SDS011;41837;55.700;37.984;2022-09-09T12:08:24;2.88;;;0.60;;
55931;SDS011;41837;55.700;37.984;2022-09-09T12:10:59;1.77;;;0.50;;
55931;SDS011;41837;55.700;37.984;2022-09-09T12:13:29;1.33;;;0.55;;
55931;SDS011;41837;55.700;37.984;2022-09-09T12:15:59;3.67;;;0.80;;
55931;SDS011;41837;55.700;37.984;2022-09-09T12:18:35;6.15;;;0.80;;
55931;SDS011;41837;55.700;37.984;2022-09-09T12:23:48;9.15;;;0.80;;
55931;SDS011;41837;55.700;37.984;2022-09-09T12:34:20;4.35;;;0.60;;
55931;SDS011;41837;55.700;37.984;2022-09-09T12:36:52;3.70;;;1.20;;
55931;SDS011;41837;55.700;37.984;2022-09-09T12:39:22;1.77;;;0.70;;
55931;SDS011;41837;55.700;37.984;2022-09-09T12:41:52;10.73;;;5.55;;
55931;SDS011;41837;55.700;37.984;2022-09-09T12:44:25;1.30;;;0.63;;
55931;SDS011;41837;55.700;37.984;2022-09-09T12:46:52;1.35;;;0.70;;
55931;SDS011;41837;55.700;37.984;2022-09-09T12:54:44;2.15;;;0.80;;
55931;SDS011;41837;55.700;37.984;2022-09-09T12:57:12;1.65;;;0.70;;
55931;SDS011;41837;55.700;37.984;2022-09-09T12:59:40;6.80;;;1.88;;
55931;SDS011;41837;55.700;37.984;2022-09-09T13:02:23;2.22;;;0.90;;
55931;SDS011;41837;55.700;37.984;2022-09-09T13:04:51;3.08;;;1.05;;
55931;SDS011;41837;55.700;37.984;2022-09-09T13:07:17;2.45;;;0.80;;
55931;SDS011;41837;55.700;37.984;2022-09-09T13:09:44;1.55;;;0.65;;
55931;SDS011;41837;55.700;37.984;2022-09-09T13:12:13;3.70;;;0.50;;
55931;SDS011;41837;55.700;37.984;2022-09-09T13:14:42;1.60;;;0.52;;
55931;SDS011;41837;55.700;37.984;2022-09-09T13:17:17;2.15;;;0.70;;
55931;SDS011;41837;55.700;37.984;2022-09-09T13:19:44;1.73;;;0.68;;
55931;SDS011;41837;55.700;37.984;2022-09-09T13:22:14;3.22;;;0.80;;
55931;SDS011;41837;55.700;37.984;2022-09-09T13:24:41;2.65;;;0.75;;
55931;SDS011;41837;55.700;37.984;2022-09-09T13:27:25;3.05;;;0.90;;
55931;SDS011;41837;55.700;37.984;2022-09-09T13:29:53;3.10;;;0.70;;
55931;SDS011;41837;55.700;37.984;2022-09-09T13:32:22;10.75;;;4.45;;
55931;SDS011;41837;55.700;37.984;2022-09-09T13:34:56;9.27;;;4.28;;
55931;SDS011;41837;55.700;37.984;2022-09-09T13:37:26;12.23;;;4.88;;
55931;SDS011;41837;55.700;37.984;2022-09-09T13:39:56;8.57;;;3.65;;
55931;SDS011;41837;55.700;37.984;2022-09-09T13:42:26;6.70;;;2.45;;
55931;SDS011;41837;55.700;37.984;2022-09-09T13:44:53;3.00;;;1.10;;
55931;SDS011;41837;55.700;37.984;2022-09-09T13:47:22;7.45;;;1.10;;
55931;SDS011;41837;55.700;37.984;2022-09-09T13:49:52;5.68;;;1.67;;
55931;SDS011;41837;55.700;37.984;2022-09-09T13:52:18;5.15;;;0.80;;
55931;SDS011;41837;55.700;37.984;2022-09-09T13:54:49;1.75;;;0.90;;
55931;SDS011;41837;55.700;37.984;2022-09-09T13:57:19;4.30;;;0.85;;
55931;SDS011;41837;55.700;37.984;2022-09-09T13:59:46;2.83;;;0.70;;
55931;SDS011;41837;55.700;37.984;2022-09-09T14:02:13;4.10;;;1.00;;
55931;SDS011;41837;55.700;37.984;2022-09-09T14:04:39;5.82;;;1.27;;
55931;SDS011;41837;55.700;37.984;2022-09-09T14:07:09;5.82;;;1.55;;
55931;SDS011;41837;55.700;37.984;2022-09-09T14:09:36;6.28;;;1.50;;
55931;SDS011;41837;55.700;37.984;2022-09-09T14:12:02;8.13;;;1.67;;
55931;SDS011;41837;55.700;37.984;2022-09-09T14:14:28;5.80;;;1.77;;
55931;SDS011;41837;55.700;37.984;2022-09-09T14:16:55;4.70;;;1.70;;
55931;SDS011;41837;55.700;37.984;2022-09-09T14:19:21;8.07;;;2.05;;
55931;SDS011;41837;55.700;37.984;2022-09-09T14:21:47;7.47;;;2.25;;
55931;SDS011;41837;55.700;37.984;2022-09-09T14:24:14;7.75;;;2.35;;
55931;SDS011;41837;55.700;37.984;2022-09-09T14:26:40;7.78;;;1.83;;
55931;SDS011;41837;55.700;37.984;2022-09-09T14:29:06;10.52;;;1.80;;
55931;SDS011;41837;55.700;37.984;2022-09-09T14:31:32;5.38;;;2.20;;
55931;SDS011;41837;55.700;37.984;2022-09-09T14:33:58;9.60;;;3.08;;
55931;SDS011;41837;55.700;37.984;2022-09-09T14:36:24;10.88;;;3.42;;
55931;SDS011;41837;55.700;37.984;2022-09-09T14:38:50;8.68;;;4.00;;
55931;SDS011;41837;55.700;37.984;2022-09-09T14:41:17;9.13;;;3.13;;
55931;SDS011;41837;55.700;37.984;2022-09-09T14:43:43;13.55;;;3.05;;
55931;SDS011;41837;55.700;37.984;2022-09-09T14:46:12;8.88;;;3.28;;
55931;SDS011;41837;55.700;37.984;2022-09-09T14:48:39;6.57;;;3.30;;
55931;SDS011;41837;55.700;37.984;2022-09-09T14:51:10;8.70;;;3.17;;
55931;SDS011;41837;55.700;37.984;2022-09-09T14:53:36;11.18;;;3.70;;
55931;SDS011;41837;55.700;37.984;2022-09-09T14:56:04;10.52;;;3.97;;
55931;SDS011;41837;55.700;37.984;2022-09-09T14:58:30;8.85;;;3.72;;
55931;SDS011;41837;55.700;37.984;2022-09-09T15:01:01;15.23;;;3.90;;
55931;SDS011;41837;55.700;37.984;2022-09-09T15:03:28;12.38;;;3.72;;
55931;SDS011;41837;55.700;37.984;2022-09-09T15:05:53;7.38;;;3.17;;
55931;SDS011;41837;55.700;37.984;2022-09-09T15:08:19;11.77;;;2.85;;
55931;SDS011;41837;55.700;37.984;2022-09-09T15:10:45;10.02;;;3.20;;
55931;SDS011;41837;55.700;37.984;2022-09-09T15:13:14;8.10;;;2.60;;
55931;SDS011;41837;55.700;37.984;2022-09-09T15:15:42;11.05;;;3.00;;
55931;SDS011;41837;55.700;37.984;2022-09-09T15:18:09;16.58;;;3.67;;
55931;SDS011;41837;55.700;37.984;2022-09-09T15:20:35;5.50;;;2.67;;
55931;SDS011;41837;55.700;37.984;2022-09-09T15:23:03;11.88;;;3.55;;
55931;SDS011;41837;55.700;37.984;2022-09-09T15:25:28;12.45;;;3.05;;
55931;SDS011;41837;55.700;37.984;2022-09-09T15:27:55;9.10;;;3.17;;
55931;SDS011;41837;55.700;37.984;2022-09-09T15:30:23;9.10;;;3.75;;
55931;SDS011;41837;55.700;37.984;2022-09-09T15:32:49;11.27;;;3.95;;
55931;SDS011;41837;55.700;37.984;2022-09-09T15:35:16;8.88;;;3.30;;
55931;SDS011;41837;55.700;37.984;2022-09-09T15:37:42;8.02;;;3.13;;
55931;SDS011;41837;55.700;37.984;2022-09-09T15:40:08;7.75;;;3.30;;
55931;SDS011;41837;55.700;37.984;2022-09-09T15:42:36;9.10;;;3.83;;
55931;SDS011;41837;55.700;37.984;2022-09-09T15:45:02;8.70;;;3.17;;
55931;SDS011;41837;55.700;37.984;2022-09-09T15:47:29;10.50;;;3.78;;
55931;SDS011;41837;55.700;37.984;2022-09-09T15:49:55;8.63;;;4.80;;
55931;SDS011;41837;55.700;37.984;2022-09-09T15:52:20;19.92;;;10.15;;
55931;SDS011;41837;55.700;37.984;2022-09-09T15:54:46;21.40;;;11.90;;
55931;SDS011;41837;55.700;37.984;2022-09-09T15:57:12;50.38;;;22.38;;
55931;SDS011;41837;55.700;37.984;2022-09-09T15:59:38;24.58;;;10.68;;
55931;SDS011;41837;55.700;37.984;2022-09-09T16:02:09;32.78;;;15.32;;
55931;SDS011;41837;55.700;37.984;2022-09-09T16:04:34;42.10;;;17.88;;
55931;SDS011;41837;55.700;37.984;2022-09-09T16:07:02;24.83;;;12.98;;
55931;SDS011;41837;55.700;37.984;2022-09-09T16:09:29;22.58;;;8.27;;
55931;SDS011;41837;55.700;37.984;2022-09-09T16:11:56;37.90;;;11.32;;
55931;SDS011;41837;55.700;37.984;2022-09-09T16:14:23;34.28;;;12.95;;
55931;SDS011;41837;55.700;37.984;2022-09-09T16:16:51;37.30;;;16.45;;
55931;SDS011;41837;55.700;37.984;2022-09-09T16:19:17;31.65;;;16.58;;
55931;SDS011;41837;55.700;37.984;2022-09-09T16:21:46;34.60;;;12.18;;
55931;SDS011;41837;55.700;37.984;2022-09-09T16:24:13;18.33;;;6.90;;
55931;SDS011;41837;55.700;37.984;2022-09-09T16:26:40;13.20;;;6.15;;
55931;SDS011;41837;55.700;37.984;2022-09-09T16:29:06;19.40;;;7.25;;
55931;SDS011;41837;55.700;37.984;2022-09-09T16:31:32;32.97;;;9.23;;
55931;SDS011;41837;55.700;37.984;2022-09-09T16:33:58;26.23;;;8.20;;
55931;SDS011;41837;55.700;37.984;2022-09-09T16:36:24;34.35;;;11.52;;
55931;SDS011;41837;55.700;37.984;2022-09-09T16:38:55;30.10;;;11.50;;
55931;SDS011;41837;55.700;37.984;2022-09-09T16:41:22;35.15;;;19.67;;
55931;SDS011;41837;55.700;37.984;2022-09-09T16:43:59;31.38;;;12.88;;
55931;SDS011;41837;55.700;37.984;2022-09-09T16:46:26;34.35;;;9.80;;
55931;SDS011;41837;55.700;37.984;2022-09-09T16:48:53;34.65;;;11.90;;